createdAt,value
2018-03-11T00:00:26.390Z,0.0
2018-03-11T00:01:28.066Z,0.0
2018-03-11T00:02:29.728Z,0.0
2018-03-11T00:03:31.377Z,0.0
2018-03-11T00:04:33.040Z,0.0
2018-03-11T00:05:34.698Z,0.0
2018-03-11T00:06:36.362Z,0.0
2018-03-11T00:07:38.007Z,0.0
2018-03-11T00:08:39.657Z,0.0
2018-03-11T00:09:41.320Z,0.0
2018-03-11T00:10:43.017Z,0.0
2018-03-11T00:11:44.671Z,0.0
2018-03-11T00:12:46.330Z,0.0
2018-03-11T00:13:47.988Z,0.0
2018-03-11T00:14:49.654Z,0.0
2018-03-11T00:15:51.296Z,0.0
2018-03-11T00:16:52.942Z,0.0
2018-03-11T00:17:54.596Z,0.0
2018-03-11T00:18:56.252Z,0.0
2018-03-11T00:19:57.897Z,0.0
2018-03-11T00:20:59.548Z,0.0
2018-03-11T00:22:01.209Z,0.0
2018-03-11T00:23:02.855Z,0.0
2018-03-11T00:24:04.511Z,0.0
2018-03-11T00:25:06.161Z,0.0
2018-03-11T00:26:07.808Z,0.0
2018-03-11T00:27:09.455Z,0.0
2018-03-11T00:28:11.110Z,0.0
2018-03-11T00:29:12.763Z,0.0
2018-03-11T00:30:14.406Z,0.0
2018-03-11T00:31:16.060Z,0.0
2018-03-11T00:32:17.719Z,0.0
2018-03-11T00:33:19.377Z,0.0
2018-03-11T00:34:21.035Z,0.0
2018-03-11T00:35:22.689Z,0.0
2018-03-11T00:36:24.344Z,0.0
2018-03-11T00:37:25.988Z,0.0
2018-03-11T00:38:27.643Z,0.0
2018-03-11T00:39:29.288Z,0.0
2018-03-11T00:40:30.937Z,0.0
2018-03-11T00:41:32.722Z,0.0
2018-03-11T00:42:34.386Z,0.0
2018-03-11T00:43:36.037Z,0.0
2018-03-11T00:44:37.691Z,0.0
2018-03-11T00:45:39.335Z,0.0
2018-03-11T00:46:40.999Z,0.0
2018-03-11T00:47:42.643Z,0.0
2018-03-11T00:48:44.296Z,0.0
2018-03-11T00:49:45.945Z,0.0
2018-03-11T00:50:47.590Z,0.0
2018-03-11T00:51:49.235Z,0.0
2018-03-11T00:52:50.891Z,0.0
2018-03-11T00:53:52.604Z,0.0
2018-03-11T00:54:54.253Z,0.0
2018-03-11T00:55:55.961Z,0.0
2018-03-11T00:56:57.609Z,0.0
2018-03-11T00:57:59.258Z,0.0
2018-03-11T00:59:00.909Z,0.0
2018-03-11T01:00:03.502Z,0.0
2018-03-11T01:01:05.165Z,0.0
2018-03-11T01:02:06.807Z,0.0
2018-03-11T01:03:08.463Z,0.0
2018-03-11T01:04:10.109Z,0.0
2018-03-11T01:05:11.761Z,0.0
2018-03-11T01:06:13.409Z,0.0
2018-03-11T01:07:15.086Z,0.0
2018-03-11T01:08:16.742Z,0.0
2018-03-11T01:09:18.407Z,0.0
2018-03-11T01:10:20.050Z,0.0
2018-03-11T01:11:21.686Z,0.0
2018-03-11T01:12:23.344Z,0.0
2018-03-11T01:13:24.994Z,0.0
2018-03-11T01:14:26.641Z,0.0
2018-03-11T01:15:28.298Z,0.0
2018-03-11T01:16:29.954Z,0.0
2018-03-11T01:17:31.601Z,0.0
2018-03-11T01:18:33.255Z,0.0
2018-03-11T01:19:34.904Z,0.0
2018-03-11T01:20:36.563Z,0.0
2018-03-11T01:21:38.296Z,0.0
2018-03-11T01:22:39.955Z,0.0
2018-03-11T01:23:41.607Z,0.0
2018-03-11T01:24:43.269Z,0.0
2018-03-11T01:25:44.919Z,0.0
2018-03-11T01:26:46.560Z,0.0
2018-03-11T01:27:48.222Z,0.0
2018-03-11T01:28:49.862Z,0.0
2018-03-11T01:29:51.509Z,0.0
2018-03-11T01:30:53.164Z,0.0
2018-03-11T01:31:54.819Z,0.0
2018-03-11T01:32:56.469Z,0.0
2018-03-11T01:33:58.118Z,0.0
2018-03-11T01:34:59.802Z,0.0
2018-03-11T01:36:01.439Z,0.0
2018-03-11T01:37:03.079Z,0.0
2018-03-11T01:38:04.722Z,0.0
2018-03-11T01:39:06.389Z,0.0
2018-03-11T01:40:08.036Z,0.0
2018-03-11T01:41:09.881Z,0.0
2018-03-11T01:42:11.527Z,0.0
2018-03-11T01:43:13.179Z,0.0
2018-03-11T01:44:14.825Z,0.0
2018-03-11T01:45:16.478Z,0.0
2018-03-11T01:46:18.134Z,0.0
2018-03-11T01:47:19.785Z,0.0
2018-03-11T01:48:21.438Z,0.0
2018-03-11T01:49:23.089Z,0.0
2018-03-11T01:50:24.742Z,0.0
2018-03-11T01:51:26.406Z,0.0
2018-03-11T01:52:28.056Z,0.0
2018-03-11T01:53:29.693Z,0.0
2018-03-11T01:54:31.343Z,0.0
2018-03-11T01:55:32.996Z,0.0
2018-03-11T01:56:34.650Z,0.0
2018-03-11T01:57:36.293Z,0.0
2018-03-11T01:58:37.951Z,0.0
2018-03-11T01:59:39.607Z,0.0
2018-03-11T02:00:41.262Z,0.0
2018-03-11T02:01:42.914Z,0.0
2018-03-11T02:02:44.554Z,0.0
2018-03-11T02:03:46.204Z,0.0
2018-03-11T02:04:47.850Z,0.0
2018-03-11T02:05:49.507Z,0.0
2018-03-11T02:06:51.156Z,0.0
2018-03-11T02:07:52.823Z,0.0
2018-03-11T02:08:54.487Z,0.0
2018-03-11T02:09:56.141Z,0.0
2018-03-11T02:10:57.808Z,0.0
2018-03-11T02:11:59.458Z,0.0
2018-03-11T02:13:01.110Z,0.0
2018-03-11T02:14:02.763Z,0.0
2018-03-11T02:15:04.417Z,0.0
2018-03-11T02:16:06.075Z,0.0
2018-03-11T02:17:07.745Z,0.0
2018-03-11T02:18:09.393Z,0.0
2018-03-11T02:19:11.038Z,0.0
2018-03-11T02:20:12.683Z,0.0
2018-03-11T02:21:14.335Z,0.0
2018-03-11T02:22:15.993Z,0.0
2018-03-11T02:23:17.638Z,0.0
2018-03-11T02:24:19.284Z,0.0
2018-03-11T02:25:20.944Z,0.0
2018-03-11T02:26:22.588Z,0.0
2018-03-11T02:27:24.236Z,0.0
2018-03-11T02:28:25.882Z,0.0
2018-03-11T02:29:27.528Z,0.0
2018-03-11T02:30:29.179Z,0.0
2018-03-11T02:31:30.832Z,0.0
2018-03-11T02:32:32.488Z,0.0
2018-03-11T02:33:34.133Z,0.0
2018-03-11T02:34:35.784Z,0.0
2018-03-11T02:35:37.430Z,0.0
2018-03-11T02:36:39.085Z,0.0
2018-03-11T02:37:40.751Z,0.0
2018-03-11T02:38:42.458Z,0.0
2018-03-11T02:39:44.105Z,0.0
2018-03-11T02:40:45.760Z,0.0
2018-03-11T02:41:47.412Z,0.0
2018-03-11T02:42:49.061Z,0.0
2018-03-11T02:43:50.714Z,0.0
2018-03-11T02:44:52.358Z,0.0
2018-03-11T02:45:54.011Z,0.0
2018-03-11T02:46:55.668Z,0.0
2018-03-11T02:47:57.326Z,0.0
2018-03-11T02:48:58.982Z,0.0
2018-03-11T02:50:00.640Z,0.0
2018-03-11T02:51:02.304Z,0.0
2018-03-11T02:52:03.970Z,0.0
2018-03-11T02:53:05.606Z,0.0
2018-03-11T02:54:07.263Z,0.0
2018-03-11T02:55:08.907Z,0.0
2018-03-11T03:01:23.843Z,0.0
2018-03-11T03:02:25.497Z,0.0
2018-03-11T03:03:27.144Z,0.0
2018-03-11T03:04:28.790Z,0.0
2018-03-11T03:05:30.442Z,0.0
2018-03-11T03:06:32.087Z,0.0
2018-03-11T03:07:33.740Z,0.0
2018-03-11T03:08:35.383Z,0.0
2018-03-11T03:09:37.028Z,0.0
2018-03-11T03:10:38.676Z,0.0
2018-03-11T03:11:40.319Z,0.0
2018-03-11T03:12:41.970Z,0.0
2018-03-11T03:13:43.622Z,0.0
2018-03-11T03:14:45.271Z,0.0
2018-03-11T03:15:46.922Z,0.0
2018-03-11T03:16:48.572Z,0.0
2018-03-11T03:17:50.215Z,0.0
2018-03-11T03:18:51.868Z,0.0
2018-03-11T03:19:53.520Z,0.0
2018-03-11T03:20:55.187Z,0.0
2018-03-11T03:21:56.840Z,0.0
2018-03-11T03:22:58.490Z,0.0
2018-03-11T03:24:00.139Z,0.0
2018-03-11T03:25:01.792Z,0.0
2018-03-11T03:26:03.440Z,0.0
2018-03-11T03:27:05.097Z,0.0
2018-03-11T03:28:06.743Z,0.0
2018-03-11T03:29:08.398Z,0.0
2018-03-11T03:30:10.053Z,0.0
2018-03-11T03:31:11.745Z,0.0
2018-03-11T03:32:13.402Z,0.0
2018-03-11T03:33:15.045Z,0.0
2018-03-11T03:34:16.704Z,0.0
2018-03-11T03:35:18.360Z,0.0
2018-03-11T03:36:20.013Z,0.0
2018-03-11T03:37:21.661Z,0.0
2018-03-11T03:38:23.314Z,0.0
2018-03-11T03:39:24.973Z,0.0
2018-03-11T03:40:26.625Z,0.0
2018-03-11T03:41:28.273Z,0.0
2018-03-11T03:42:29.927Z,0.0
2018-03-11T03:43:31.581Z,0.0
2018-03-11T03:44:33.225Z,0.0
2018-03-11T03:45:34.871Z,0.0
2018-03-11T03:46:36.526Z,0.0
2018-03-11T03:47:38.167Z,0.0
2018-03-11T03:48:39.821Z,0.0
2018-03-11T03:49:41.485Z,0.0
2018-03-11T03:50:43.141Z,0.0
2018-03-11T03:51:44.794Z,0.0
2018-03-11T03:52:46.450Z,0.0
2018-03-11T03:53:48.097Z,0.0
2018-03-11T03:54:49.743Z,0.0
2018-03-11T03:55:51.385Z,0.0
2018-03-11T03:56:53.046Z,0.0
2018-03-11T03:57:54.693Z,0.0
2018-03-11T03:58:56.346Z,0.0
2018-03-11T03:59:58.003Z,0.0
2018-03-11T04:00:59.641Z,0.0
2018-03-11T04:02:01.291Z,0.0
2018-03-11T04:03:02.957Z,0.0
2018-03-11T04:04:04.639Z,0.0
2018-03-11T04:05:06.294Z,0.0
2018-03-11T04:06:07.944Z,0.0
2018-03-11T04:07:09.589Z,0.0
2018-03-11T04:08:11.238Z,0.0
2018-03-11T04:09:12.878Z,0.0
2018-03-11T04:10:14.541Z,0.0
2018-03-11T04:11:16.187Z,0.0
2018-03-11T04:12:17.839Z,0.0
2018-03-11T04:13:19.488Z,0.0
2018-03-11T04:14:21.133Z,0.0
2018-03-11T04:15:22.780Z,0.0
2018-03-11T04:16:24.430Z,0.0
2018-03-11T04:17:26.080Z,0.0
2018-03-11T04:18:27.737Z,0.0
2018-03-11T04:19:29.398Z,0.0
2018-03-11T04:20:31.057Z,0.0
2018-03-11T04:21:32.701Z,0.0
2018-03-11T04:22:34.350Z,0.0
2018-03-11T04:23:35.999Z,0.0
2018-03-11T04:24:37.641Z,0.0
2018-03-11T04:25:39.299Z,0.0
2018-03-11T04:26:40.947Z,0.0
2018-03-11T04:27:42.602Z,0.0
2018-03-11T04:28:44.259Z,0.0
2018-03-11T04:29:45.909Z,0.0
2018-03-11T04:30:47.557Z,0.0
2018-03-11T04:31:49.258Z,0.0
2018-03-11T04:32:50.906Z,0.0
2018-03-11T04:33:52.562Z,0.0
2018-03-11T04:34:54.211Z,0.0
2018-03-11T04:35:55.850Z,0.0
2018-03-11T04:36:57.501Z,0.0
2018-03-11T04:37:59.153Z,0.0
2018-03-11T04:39:00.803Z,0.0
2018-03-11T04:40:02.462Z,0.0
2018-03-11T04:41:04.108Z,0.0
2018-03-11T04:42:05.761Z,0.0
2018-03-11T04:43:07.422Z,0.0
2018-03-11T04:44:09.067Z,0.0
2018-03-11T04:45:10.719Z,0.0
2018-03-11T04:46:12.374Z,0.0
2018-03-11T04:47:14.045Z,0.0
2018-03-11T04:48:15.697Z,0.0
2018-03-11T04:49:17.350Z,0.0
2018-03-11T04:50:19.006Z,0.0
2018-03-11T04:51:20.661Z,0.0
2018-03-11T04:52:22.313Z,0.0
2018-03-11T04:53:23.963Z,0.0
2018-03-11T04:54:25.618Z,0.0
2018-03-11T04:55:27.268Z,0.0
2018-03-11T04:56:28.919Z,0.0
2018-03-11T04:57:30.573Z,0.0
2018-03-11T04:58:32.230Z,0.0
2018-03-11T04:59:33.865Z,0.0
2018-03-11T05:00:35.533Z,0.0
2018-03-11T05:01:37.192Z,0.0
2018-03-11T05:02:38.842Z,0.0
2018-03-11T05:03:40.492Z,0.0
2018-03-11T05:04:42.144Z,0.0
2018-03-11T05:05:43.799Z,0.0
2018-03-11T05:06:45.449Z,0.0
2018-03-11T05:07:47.099Z,0.0
2018-03-11T05:08:48.745Z,0.0
2018-03-11T05:09:50.413Z,0.0
2018-03-11T05:10:52.066Z,0.0
2018-03-11T05:11:53.718Z,0.0
2018-03-11T05:12:55.367Z,0.0
2018-03-11T05:13:57.012Z,0.0
2018-03-11T05:14:58.676Z,0.0
2018-03-11T05:16:00.328Z,0.0
2018-03-11T05:17:01.978Z,0.0
2018-03-11T05:18:03.638Z,0.0
2018-03-11T05:19:05.286Z,0.0
2018-03-11T05:20:06.943Z,0.0
2018-03-11T05:21:08.593Z,0.0
2018-03-11T05:22:10.234Z,0.0
2018-03-11T05:23:11.886Z,0.0
2018-03-11T05:24:13.555Z,0.0
2018-03-11T05:25:15.243Z,0.0
2018-03-11T05:26:16.895Z,0.0
2018-03-11T05:27:18.546Z,0.0
2018-03-11T05:28:20.199Z,0.0
2018-03-11T05:29:21.857Z,0.0
2018-03-11T05:30:23.512Z,0.0
2018-03-11T05:31:25.165Z,0.0
2018-03-11T05:32:26.823Z,0.0
2018-03-11T05:33:28.474Z,0.0
2018-03-11T05:34:30.119Z,0.0
2018-03-11T05:35:31.766Z,0.0
2018-03-11T05:36:33.423Z,0.0
2018-03-11T05:37:35.082Z,0.0
2018-03-11T05:38:36.734Z,0.0
2018-03-11T05:39:38.385Z,0.0
2018-03-11T05:40:40.034Z,0.0
2018-03-11T05:41:41.689Z,0.0
2018-03-11T05:42:43.336Z,0.0
2018-03-11T05:43:44.986Z,0.0
2018-03-11T05:44:46.642Z,0.0
2018-03-11T05:45:48.300Z,0.0
2018-03-11T05:46:49.959Z,0.0
2018-03-11T05:47:51.609Z,0.0
2018-03-11T05:48:53.270Z,0.0
2018-03-11T05:49:54.924Z,0.0
2018-03-11T05:50:56.584Z,0.0
2018-03-11T05:51:58.243Z,0.0
2018-03-11T05:52:59.889Z,0.0
2018-03-11T05:54:01.551Z,0.0
2018-03-11T05:55:03.210Z,0.0
2018-03-11T05:56:04.866Z,0.0
2018-03-11T05:57:06.524Z,0.0
2018-03-11T05:58:08.184Z,0.0
2018-03-11T05:59:09.842Z,0.0
2018-03-11T06:00:11.493Z,0.0
2018-03-11T06:01:13.153Z,0.0
2018-03-11T06:02:14.813Z,0.0
2018-03-11T06:03:16.468Z,0.0
2018-03-11T06:04:18.134Z,0.0
2018-03-11T06:05:19.779Z,0.0
2018-03-11T06:06:21.436Z,0.0
2018-03-11T06:07:23.096Z,0.0
2018-03-11T06:08:24.830Z,0.0
2018-03-11T06:09:26.486Z,0.0
2018-03-11T06:10:28.140Z,0.0
2018-03-11T06:11:29.796Z,0.0
2018-03-11T06:12:31.467Z,0.0
2018-03-11T06:13:33.127Z,0.0
2018-03-11T06:14:34.817Z,0.0
2018-03-11T06:15:36.483Z,0.0
2018-03-11T06:16:38.157Z,0.0
2018-03-11T06:17:39.807Z,0.0
2018-03-11T06:18:41.463Z,0.0
2018-03-11T06:19:43.120Z,0.0
2018-03-11T06:20:44.774Z,0.0
2018-03-11T06:21:46.446Z,0.0
2018-03-11T06:22:48.105Z,0.0
2018-03-11T06:23:49.788Z,0.0
2018-03-11T06:24:51.426Z,0.0
2018-03-11T06:25:53.088Z,0.0
2018-03-11T06:26:54.756Z,0.0
2018-03-11T06:27:56.401Z,0.0
2018-03-11T06:28:58.055Z,0.0
2018-03-11T06:29:59.709Z,0.0
2018-03-11T06:31:01.370Z,0.0
2018-03-11T06:32:03.024Z,0.0
2018-03-11T06:33:04.695Z,0.0
2018-03-11T06:34:06.347Z,0.0
2018-03-11T06:35:07.995Z,0.0
2018-03-11T06:36:09.657Z,0.0
2018-03-11T06:37:11.315Z,0.0
2018-03-11T06:38:12.973Z,0.0
2018-03-11T06:39:14.633Z,0.0
2018-03-11T06:40:16.300Z,0.0
2018-03-11T06:41:17.958Z,0.0
2018-03-11T06:42:19.623Z,0.0
2018-03-11T06:43:21.288Z,0.0
2018-03-11T06:44:22.967Z,0.0
2018-03-11T06:45:24.627Z,0.0
2018-03-11T06:46:26.276Z,0.0
2018-03-11T06:47:27.933Z,0.0
2018-03-11T06:48:29.601Z,0.0
2018-03-11T06:49:31.254Z,0.0
2018-03-11T06:50:32.913Z,0.0
2018-03-11T06:51:34.582Z,0.0
2018-03-11T06:52:36.243Z,0.0
2018-03-11T06:53:37.898Z,0.0
2018-03-11T06:54:39.550Z,0.0
2018-03-11T06:55:41.224Z,0.0
2018-03-11T06:56:42.873Z,0.0
2018-03-11T06:57:44.522Z,0.0
2018-03-11T06:58:46.192Z,0.0
2018-03-11T06:59:47.847Z,0.0
2018-03-11T07:00:49.505Z,0.0
2018-03-11T07:01:51.162Z,0.0
2018-03-11T07:02:52.829Z,0.0
2018-03-11T07:03:54.495Z,0.0
2018-03-11T07:04:56.151Z,0.0
2018-03-11T07:05:57.809Z,0.0
2018-03-11T07:06:59.462Z,0.0
2018-03-11T07:08:01.127Z,0.0
2018-03-11T07:09:02.775Z,0.0
2018-03-11T07:10:04.435Z,0.0
2018-03-11T07:11:06.088Z,0.0
2018-03-11T07:12:07.738Z,0.0
2018-03-11T07:13:09.396Z,0.0
2018-03-11T07:14:11.057Z,0.0
2018-03-11T07:15:12.752Z,0.0
2018-03-11T07:16:14.409Z,0.0
2018-03-11T07:17:16.070Z,0.0
2018-03-11T07:18:17.728Z,0.0
2018-03-11T07:19:19.390Z,0.0
2018-03-11T07:20:21.068Z,0.0
2018-03-11T07:21:22.723Z,0.0
2018-03-11T07:22:24.372Z,0.0
2018-03-11T07:23:26.037Z,0.0
2018-03-11T07:24:27.754Z,2.0
2018-03-11T07:25:29.427Z,2.6
2018-03-11T07:26:31.085Z,3.4
2018-03-11T07:27:32.751Z,4.6
2018-03-11T07:28:34.406Z,4.0
2018-03-11T07:29:36.061Z,3.4
2018-03-11T07:30:37.727Z,4.5
2018-03-11T07:31:39.380Z,4.1
2018-03-11T07:32:41.040Z,3.2
2018-03-11T07:33:42.696Z,3.2
2018-03-11T07:34:44.358Z,3.0
2018-03-11T07:35:46.011Z,3.5
2018-03-11T07:36:47.676Z,3.5
2018-03-11T07:37:49.335Z,3.5
2018-03-11T07:38:50.998Z,4.2
2018-03-11T07:39:52.663Z,3.8
2018-03-11T07:40:54.329Z,4.1
2018-03-11T07:41:55.991Z,3.9
2018-03-11T07:42:57.643Z,4.2
2018-03-11T07:43:59.305Z,4.4
2018-03-11T07:45:00.977Z,4.2
2018-03-11T07:46:02.677Z,3.3
2018-03-11T07:47:04.344Z,3.4
2018-03-11T07:48:05.993Z,2.6
2018-03-11T07:49:07.655Z,3.6
2018-03-11T07:50:09.314Z,4.7
2018-03-11T07:51:10.973Z,5.6
2018-03-11T07:52:12.632Z,5.8
2018-03-11T07:53:14.299Z,6.8
2018-03-11T07:54:15.948Z,7.9
2018-03-11T07:55:17.643Z,8.4
2018-03-11T07:56:19.271Z,9.6
2018-03-11T07:57:20.933Z,11.8
2018-03-11T07:58:22.593Z,12.8
2018-03-11T07:59:24.264Z,13.3
2018-03-11T08:00:25.915Z,14.8
2018-03-11T08:01:27.582Z,16.6
2018-03-11T08:02:29.253Z,17.3
2018-03-11T08:03:30.901Z,17.9
2018-03-11T08:04:32.557Z,19.8
2018-03-11T08:05:34.213Z,22.1
2018-03-11T08:06:35.883Z,21.8
2018-03-11T08:07:37.530Z,22.9
2018-03-11T08:08:39.187Z,25.1
2018-03-11T08:09:40.861Z,26.8
2018-03-11T08:10:42.524Z,25.6
2018-03-11T08:11:44.192Z,24.6
2018-03-11T08:12:45.853Z,22.7
2018-03-11T08:13:47.517Z,24.9
2018-03-11T08:14:49.187Z,26.2
2018-03-11T08:15:50.846Z,26.6
2018-03-11T08:16:52.502Z,25.8
2018-03-11T08:17:54.167Z,25.5
2018-03-11T08:18:55.829Z,25.9
2018-03-11T08:19:57.492Z,26.2
2018-03-11T08:20:59.149Z,26.6
2018-03-11T08:22:00.803Z,27.1
2018-03-11T08:23:02.461Z,27.5
2018-03-11T08:24:04.123Z,28.4
2018-03-11T08:25:05.796Z,28.5
2018-03-11T08:26:07.448Z,28.5
2018-03-11T08:27:09.120Z,27.0
2018-03-11T08:28:10.780Z,26.5
2018-03-11T08:29:12.444Z,26.4
2018-03-11T08:30:14.109Z,27.2
2018-03-11T08:31:15.852Z,27.1
2018-03-11T08:32:17.846Z,28.3
2018-03-11T08:33:19.458Z,28.5
2018-03-11T08:34:21.113Z,29.9
2018-03-11T08:35:22.771Z,30.1
2018-03-11T08:36:24.458Z,31.0
2018-03-11T08:37:26.151Z,34.1
2018-03-11T08:38:27.815Z,35.0
2018-03-11T08:39:29.496Z,35.9
2018-03-11T08:40:31.154Z,38.1
2018-03-11T08:41:32.811Z,36.4
2018-03-11T08:42:34.490Z,38.2
2018-03-11T08:43:36.142Z,37.7
2018-03-11T08:44:38.185Z,37.1
2018-03-11T08:45:41.343Z,37.2
2018-03-11T08:46:42.990Z,36.4
2018-03-11T08:47:44.647Z,37.1
2018-03-11T08:48:46.392Z,37.5
2018-03-11T08:49:48.032Z,36.1
2018-03-11T08:50:49.696Z,37.9
2018-03-11T08:51:51.355Z,37.1
2018-03-11T08:52:53.035Z,37.1
2018-03-11T08:53:54.745Z,38.3
2018-03-11T08:54:56.355Z,39.7
2018-03-11T08:55:58.017Z,50.0
2018-03-11T08:56:59.944Z,54.2
2018-03-11T08:58:01.616Z,57.8
2018-03-11T08:59:03.319Z,55.9
2018-03-11T09:00:04.960Z,55.3
2018-03-11T09:01:06.634Z,53.9
2018-03-11T09:02:08.300Z,50.6
2018-03-11T09:03:09.969Z,47.0
2018-03-11T09:04:11.644Z,47.1
2018-03-11T09:05:13.307Z,45.7
2018-03-11T09:06:14.971Z,49.9
2018-03-11T09:07:16.628Z,48.0
2018-03-11T09:08:18.296Z,45.7
2018-03-11T09:09:19.957Z,48.0
2018-03-11T09:10:21.657Z,45.8
2018-03-11T09:11:23.296Z,49.5
2018-03-11T09:12:24.963Z,49.3
2018-03-11T09:13:26.619Z,50.1
2018-03-11T09:14:28.414Z,50.8
2018-03-11T09:15:30.037Z,52.5
2018-03-11T09:16:31.698Z,53.8
2018-03-11T09:17:33.367Z,54.4
2018-03-11T09:18:35.044Z,56.4
2018-03-11T09:19:36.714Z,56.5
2018-03-11T09:20:38.368Z,57.2
2018-03-11T09:21:40.077Z,60.1
2018-03-11T09:22:41.706Z,61.8
2018-03-11T09:23:43.377Z,63.1
2018-03-11T09:24:45.051Z,61.2
2018-03-11T09:25:46.710Z,59.9
2018-03-11T09:26:49.483Z,61.0
2018-03-11T09:27:51.133Z,62.7
2018-03-11T09:28:52.807Z,63.5
2018-03-11T09:29:54.483Z,65.2
2018-03-11T09:31:01.949Z,65.3
2018-03-11T09:32:06.845Z,62.5
2018-03-11T09:33:08.483Z,59.7
2018-03-11T09:34:10.155Z,60.1
2018-03-11T09:35:13.368Z,59.5
2018-03-11T09:36:14.962Z,56.5
2018-03-11T09:37:16.754Z,55.7
2018-03-11T09:38:18.418Z,56.7
2018-03-11T09:39:20.080Z,57.5
2018-03-11T09:40:21.744Z,55.7
2018-03-11T09:41:23.543Z,55.7
2018-03-11T09:42:25.431Z,56.5
2018-03-11T09:43:27.093Z,55.7
2018-03-11T09:44:28.931Z,55.2
2018-03-11T09:45:30.584Z,54.4
2018-03-11T09:46:32.308Z,54.2
2018-03-11T09:47:33.979Z,54.8
2018-03-11T09:48:35.815Z,56.5
2018-03-11T09:49:37.556Z,57.3
2018-03-11T09:50:39.218Z,53.6
2018-03-11T09:51:40.879Z,50.3
2018-03-11T09:52:42.539Z,49.4
2018-03-11T09:53:44.207Z,45.8
2018-03-11T09:54:45.875Z,44.5
2018-03-11T09:55:47.531Z,43.4
2018-03-11T09:56:49.240Z,44.0
2018-03-11T09:57:50.951Z,42.4
2018-03-11T09:58:52.631Z,41.8
2018-03-11T09:59:54.287Z,40.4
2018-03-11T10:00:55.954Z,40.2
2018-03-11T10:01:57.607Z,38.9
2018-03-11T10:02:59.275Z,38.3
2018-03-11T10:04:00.933Z,37.3
2018-03-11T10:05:02.602Z,36.4
2018-03-11T10:06:04.274Z,36.0
2018-03-11T10:07:05.999Z,35.1
2018-03-11T10:08:07.670Z,33.0
2018-03-11T10:09:09.446Z,31.8
2018-03-11T10:10:11.123Z,32.3
2018-03-11T10:11:12.784Z,34.8
2018-03-11T10:12:14.537Z,33.6
2018-03-11T10:13:16.203Z,37.6
2018-03-11T10:14:17.874Z,38.7
2018-03-11T10:15:19.933Z,39.4
2018-03-11T10:16:21.661Z,39.4
2018-03-11T10:17:23.279Z,40.0
2018-03-11T10:18:24.937Z,40.6
2018-03-11T10:19:26.602Z,39.5
2018-03-11T10:20:28.288Z,38.7
2018-03-11T10:21:29.967Z,42.0
2018-03-11T10:22:31.636Z,47.3
2018-03-11T10:23:33.290Z,45.8
2018-03-11T10:24:34.950Z,45.1
2018-03-11T10:25:36.634Z,47.1
2018-03-11T10:26:38.292Z,53.1
2018-03-11T10:27:39.961Z,51.8
2018-03-11T10:28:41.874Z,52.4
2018-03-11T10:29:43.551Z,54.1
2018-03-11T10:30:45.228Z,55.7
2018-03-11T10:31:46.890Z,57.4
2018-03-11T10:32:48.559Z,59.0
2018-03-11T10:33:50.284Z,57.9
2018-03-11T10:34:52.198Z,58.1
2018-03-11T10:35:53.876Z,62.7
2018-03-11T10:36:55.544Z,65.9
2018-03-11T10:37:57.210Z,64.8
2018-03-11T10:38:58.866Z,65.3
2018-03-11T10:40:00.802Z,69.8
2018-03-11T10:41:02.479Z,74.2
2018-03-11T10:42:05.004Z,77.3
2018-03-11T10:43:06.767Z,80.8
2018-03-11T10:44:08.368Z,83.8
2018-03-11T10:45:10.062Z,86.5
2018-03-11T10:46:12.495Z,87.1
2018-03-11T10:47:14.160Z,87.9
2018-03-11T10:48:15.827Z,87.5
2018-03-11T10:49:17.515Z,84.9
2018-03-11T10:50:19.193Z,80.1
2018-03-11T10:51:21.090Z,81.7
2018-03-11T10:52:23.321Z,84.5
2018-03-11T10:53:24.986Z,82.2
2018-03-11T10:54:26.721Z,84.4
2018-03-11T10:55:28.433Z,80.2
2018-03-11T11:01:43.055Z,76.0
2018-03-11T11:02:44.710Z,75.1
2018-03-11T11:04:56.050Z,78.4
2018-03-11T11:05:57.712Z,75.1
2018-03-11T11:06:59.377Z,75.3
2018-03-11T11:08:01.030Z,82.5
2018-03-11T11:09:02.698Z,82.5
2018-03-11T11:10:04.363Z,79.7
2018-03-11T11:11:06.036Z,78.7
2018-03-11T11:12:07.735Z,78.0
2018-03-11T11:13:09.424Z,79.8
2018-03-11T11:14:11.540Z,77.5
2018-03-11T11:15:13.218Z,75.6
2018-03-11T11:16:14.884Z,77.2
2018-03-11T11:17:16.565Z,81.2
2018-03-11T11:18:18.237Z,82.5
2018-03-11T11:19:19.951Z,78.8
2018-03-11T11:20:45.053Z,80.8
2018-03-11T11:21:46.898Z,79.9
2018-03-11T11:22:48.572Z,78.2
2018-03-11T11:23:50.258Z,78.8
2018-03-11T11:24:51.946Z,82.2
2018-03-11T11:25:53.928Z,83.1
2018-03-11T11:26:55.616Z,84.3
2018-03-11T11:27:57.320Z,88.8
2018-03-11T11:28:58.980Z,87.2
2018-03-11T11:30:01.176Z,92.5
2018-03-11T11:31:02.973Z,87.1
2018-03-11T11:32:04.639Z,87.8
2018-03-11T11:33:06.425Z,91.5
2018-03-11T11:34:08.097Z,91.0
2018-03-11T11:35:09.761Z,92.2
2018-03-11T11:36:11.433Z,88.7
2018-03-11T11:37:13.112Z,88.5
2018-03-11T11:38:14.830Z,83.8
2018-03-11T11:39:19.091Z,79.0
2018-03-11T11:40:20.752Z,79.2
2018-03-11T11:44:14.229Z,83.7
2018-03-11T11:45:15.911Z,82.3
2018-03-11T11:46:17.808Z,83.3
2018-03-11T11:47:19.507Z,84.3
2018-03-11T11:48:21.154Z,85.8
2018-03-11T11:49:22.826Z,85.2
2018-03-11T11:50:24.871Z,85.7
2018-03-11T11:51:26.532Z,82.5
2018-03-11T11:52:28.201Z,85.1
2018-03-11T11:53:29.871Z,88.9
2018-03-11T11:54:31.549Z,90.2
2018-03-11T11:55:33.237Z,89.2
2018-03-11T11:56:34.900Z,90.2
2018-03-11T11:57:36.578Z,90.1
2018-03-11T11:58:38.273Z,91.7
2018-03-11T11:59:40.009Z,93.1
2018-03-11T12:00:41.692Z,92.3
2018-03-11T12:01:43.339Z,90.1
2018-03-11T12:02:45.014Z,90.4
2018-03-11T12:03:46.684Z,92.2
2018-03-11T12:04:48.348Z,91.4
2018-03-11T12:05:50.016Z,91.5
2018-03-11T12:06:51.689Z,92.2
2018-03-11T12:07:53.353Z,92.2
2018-03-11T12:08:55.022Z,91.0
2018-03-11T12:09:56.714Z,90.0
2018-03-11T12:10:58.378Z,88.9
2018-03-11T12:12:00.047Z,88.5
2018-03-11T12:13:01.704Z,87.6
2018-03-11T12:14:03.469Z,88.5
2018-03-11T12:15:05.225Z,86.0
2018-03-11T12:16:08.706Z,85.0
2018-03-11T12:17:10.167Z,83.8
2018-03-11T12:18:11.842Z,84.7
2018-03-11T12:19:15.068Z,83.9
2018-03-11T12:20:18.094Z,83.8
2018-03-11T12:21:22.647Z,85.0
2018-03-11T12:22:24.765Z,83.6
2018-03-11T12:23:26.613Z,83.6
2018-03-11T12:24:28.496Z,82.9
2018-03-11T12:25:30.384Z,83.2
2018-03-11T12:26:32.260Z,83.7
2018-03-11T12:27:34.076Z,82.8
2018-03-11T12:28:35.911Z,81.7
2018-03-11T12:29:37.814Z,82.1
2018-03-11T12:30:39.679Z,81.5
2018-03-11T12:31:41.579Z,81.4
2018-03-11T12:32:43.580Z,82.0
2018-03-11T12:33:45.459Z,83.0
2018-03-11T12:34:47.250Z,83.6
2018-03-11T12:35:49.129Z,81.9
2018-03-11T12:36:50.895Z,82.1
2018-03-11T12:37:52.604Z,80.7
2018-03-11T12:38:54.466Z,79.1
2018-03-11T12:39:56.349Z,79.4
2018-03-11T12:40:58.237Z,81.1
2018-03-11T12:42:00.028Z,80.3
2018-03-11T12:43:02.311Z,79.9
2018-03-11T12:44:04.192Z,81.1
2018-03-11T12:45:06.075Z,81.5
2018-03-11T12:46:08.095Z,82.1
2018-03-11T12:47:09.982Z,81.6
2018-03-11T12:48:11.811Z,81.4
2018-03-11T12:49:13.794Z,82.6
2018-03-11T12:50:15.820Z,82.8
2018-03-11T12:51:17.754Z,83.4
2018-03-11T12:52:19.611Z,85.0
2018-03-11T12:53:21.411Z,83.9
2018-03-11T12:54:23.318Z,84.7
2018-03-11T12:55:25.247Z,84.2
2018-03-11T12:56:27.150Z,85.4
2018-03-11T12:57:28.984Z,87.5
2018-03-11T12:58:30.876Z,86.7
2018-03-11T12:59:32.812Z,87.5
2018-03-11T13:00:34.744Z,87.9
2018-03-11T13:01:36.623Z,88.9
2018-03-11T13:02:38.485Z,89.0
2018-03-11T13:03:40.338Z,90.3
2018-03-11T13:04:42.220Z,90.1
2018-03-11T13:05:44.054Z,89.9
2018-03-11T13:06:45.970Z,90.6
2018-03-11T13:07:47.875Z,90.1
2018-03-11T13:08:49.758Z,91.0
2018-03-11T13:09:51.651Z,91.2
2018-03-11T13:10:53.616Z,91.4
2018-03-11T13:11:55.515Z,93.5
2018-03-11T13:12:57.316Z,91.8
2018-03-11T13:13:59.196Z,91.2
2018-03-11T13:15:01.129Z,90.0
2018-03-11T13:16:03.203Z,90.5
2018-03-11T13:17:05.071Z,89.5
2018-03-11T13:18:06.977Z,90.8
2018-03-11T13:19:08.834Z,90.0
2018-03-11T13:20:10.676Z,89.9
2018-03-11T13:21:12.563Z,88.9
2018-03-11T13:22:14.470Z,87.8
2018-03-11T13:23:16.397Z,87.7
2018-03-11T13:24:18.142Z,87.7
2018-03-11T13:25:19.900Z,86.8
2018-03-11T13:26:21.624Z,85.0
2018-03-11T13:27:23.410Z,84.6
2018-03-11T13:28:25.171Z,84.9
2018-03-11T13:29:26.908Z,84.4
2018-03-11T13:30:28.635Z,83.3
2018-03-11T13:31:30.380Z,83.6
2018-03-11T13:32:32.070Z,83.5
2018-03-11T13:33:33.893Z,82.5
2018-03-11T13:34:35.571Z,82.9
2018-03-11T13:35:37.248Z,83.7
2018-03-11T13:36:38.938Z,83.9
2018-03-11T13:37:40.617Z,82.5
2018-03-11T13:38:42.280Z,84.4
2018-03-11T13:39:43.949Z,81.6
2018-03-11T13:40:45.622Z,83.3
2018-03-11T13:41:47.302Z,82.4
2018-03-11T13:42:48.956Z,85.1
2018-03-11T13:43:50.626Z,85.3
2018-03-11T13:44:52.290Z,85.6
2018-03-11T13:45:53.961Z,88.2
2018-03-11T13:46:55.622Z,91.2
2018-03-11T13:47:57.288Z,91.3
2018-03-11T13:48:58.949Z,91.1
2018-03-11T13:50:00.621Z,87.5
2018-03-11T13:51:02.288Z,84.9
2018-03-11T13:52:03.944Z,86.8
2018-03-11T13:53:05.615Z,87.0
2018-03-11T13:54:07.283Z,86.8
2018-03-11T13:55:08.959Z,87.9
2018-03-11T13:56:10.617Z,87.0
2018-03-11T13:57:12.288Z,86.6
2018-03-11T13:58:13.951Z,86.9
2018-03-11T13:59:15.615Z,87.6
2018-03-11T14:00:17.288Z,87.3
2018-03-11T14:01:18.953Z,87.3
2018-03-11T14:02:20.620Z,87.0
2018-03-11T14:03:22.282Z,86.8
2018-03-11T14:04:23.985Z,88.0
2018-03-11T14:05:25.608Z,88.9
2018-03-11T14:06:28.030Z,89.8
2018-03-11T14:07:29.697Z,90.0
2018-03-11T14:08:31.354Z,90.3
2018-03-11T14:09:33.037Z,91.1
2018-03-11T14:10:34.680Z,91.1
2018-03-11T14:11:36.345Z,91.3